Terminal Aerodrome Forecast
Issued by NWS

Home | Current Version | Previous Version | Text Only | Print | Product List | Glossary On
Versions: 1 2 3 4 5 6 7 8 9 10 11 12 13 14 15 16 17 18 19 20 21 22 23 24 25 26 27
000
FTUS42 KJAX 310500
TAFVQQ
TAF
KVQQ 310540Z 3106/0106 31004KT P6SM SCT025 BKN035
      TEMPO 3108/3112 BKN025
     FM311500 31010KT P6SM FEW040
     FM312300 27005KT P6SM SKC=

USA.gov is the U.S. government's official web portal to all federal, state and local government web resources and services.